Time;durP1;ratioP1;P1;durP2;ratioP2;P2;SDS_P1;SDS_P2;PMS_P1;PMS_P2;Temp;Humidity;BMP_temperature;BMP_pressure;BME280_temperature;BME280_humidity;BME280_pressure;Samples;Min_cycle;Max_cycle;Signal;HPM_P1;HPM_P2
2021/12/07 00:02:01;;;;;;;32.90;12.47;;;9.10;87.10;;;;;;5076488;28;20305;-77
2021/12/07 00:04:31;;;;;;;31.60;12.63;;;9.10;87.10;;;;;;5075974;28;20711;-76
2021/12/07 00:07:00;;;;;;;38.17;12.63;;;9.10;87.20;;;;;;5070050;28;20193;-75
2021/12/07 00:09:28;;;;;;;35.43;12.70;;;9.00;87.20;;;;;;5079526;28;20602;-77
2021/12/07 00:12:03;;;;;;;34.27;12.37;;;9.00;87.20;;;;;;5075951;28;20717;-77
2021/12/07 00:14:37;;;;;;;36.93;12.70;;;9.00;87.30;;;;;;5076824;28;20188;-77
2021/12/07 00:17:06;;;;;;;30.43;12.03;;;9.00;87.30;;;;;;5071216;28;20201;-76
2021/12/07 00:19:36;;;;;;;31.80;11.87;;;9.00;87.30;;;;;;5078388;28;20193;-77
2021/12/07 00:22:07;;;;;;;31.97;12.80;;;9.00;87.40;;;;;;5080233;28;20193;-77
2021/12/07 00:24:40;;;;;;;29.33;11.13;;;9.10;87.60;;;;;;5081194;28;20756;-78
2021/12/07 00:27:08;;;;;;;30.80;11.33;;;9.00;87.70;;;;;;5076283;28;20190;-76
2021/12/07 00:29:36;;;;;;;30.90;12.77;;;9.10;87.70;;;;;;5075463;28;20343;-77
2021/12/07 00:32:20;;;;;;;31.47;13.23;;;9.10;87.70;;;;;;5077324;28;20189;-76
2021/12/07 00:35:13;;;;;;;28.00;10.97;;;9.10;87.70;;;;;;5073799;28;20197;-76
2021/12/07 00:37:44;;;;;;;31.27;11.93;;;9.10;87.70;;;;;;5075556;28;20716;-76
2021/12/07 00:40:17;;;;;;;33.73;12.57;;;9.10;87.70;;;;;;5081300;28;20206;-77
2021/12/07 00:42:45;;;;;;;27.30;11.27;;;9.10;87.70;;;;;;5078526;28;20623;-77
2021/12/07 00:45:17;;;;;;;32.90;11.93;;;9.10;87.70;;;;;;5074004;28;20221;-76
2021/12/07 00:47:45;;;;;;;34.63;12.40;;;9.10;87.70;;;;;;5082415;28;20197;-77
2021/12/07 00:50:16;;;;;;;33.00;12.23;;;9.10;87.80;;;;;;5076243;28;20193;-77
2021/12/07 00:52:45;;;;;;;33.10;12.53;;;9.10;87.80;;;;;;5074098;28;20194;-76
2021/12/07 00:55:18;;;;;;;26.70;11.67;;;9.00;87.60;;;;;;5070979;28;20251;-76
2021/12/07 00:57:49;;;;;;;35.63;11.57;;;9.00;87.70;;;;;;5077129;28;20196;-76
2021/12/07 01:00:18;;;;;;;31.63;12.57;;;9.10;88.00;;;;;;5076612;28;20197;-76
2021/12/07 01:02:47;;;;;;;36.47;12.37;;;9.10;87.90;;;;;;5080429;28;20207;-77
2021/12/07 01:05:21;;;;;;;35.10;12.30;;;9.10;88.00;;;;;;5067649;28;20221;-78
2021/12/07 01:08:13;;;;;;;32.37;11.77;;;9.10;87.90;;;;;;5077133;28;20189;-77
2021/12/07 01:24:41;;;;;;;28.73;11.83;;;9.20;88.00;;;;;;5072611;28;20212;-76
2021/12/07 01:27:13;;;;;;;26.77;10.23;;;9.20;87.90;;;;;;5075156;28;20206;-77
2021/12/07 01:29:43;;;;;;;28.20;11.13;;;9.20;87.90;;;;;;5081111;28;20182;-77
2021/12/07 01:32:23;;;;;;;27.10;9.97;;;9.20;87.80;;;;;;5080187;28;20196;-77
2021/12/07 01:37:55;;;;;;;27.00;11.27;;;9.20;87.80;;;;;;5067113;28;20423;-76
2021/12/07 01:40:41;;;;;;;26.80;11.33;;;9.20;88.70;;;;;;5077156;28;20196;-77
2021/12/07 01:51:46;;;;;;;28.47;11.17;;;9.20;87.80;;;;;;5069718;28;20641;-77
2021/12/07 02:00:11;;;;;;;33.20;11.43;;;9.20;87.80;;;;;;5011130;28;20195;-76
2021/12/07 02:02:40;;;;;;;29.83;11.03;;;9.20;88.00;;;;;;5011835;28;20195;-78
2021/12/07 02:05:11;;;;;;;30.10;11.87;;;9.20;87.90;;;;;;5034199;28;20190;-77
2021/12/07 02:07:39;;;;;;;39.50;11.87;;;9.20;87.80;;;;;;5076651;28;20190;-78
2021/12/07 02:10:15;;;;;;;31.73;11.17;;;9.20;87.90;;;;;;5079672;28;20604;-77
2021/12/07 02:12:45;;;;;;;31.07;11.73;;;9.20;87.80;;;;;;5077299;28;20209;-77
2021/12/07 02:15:16;;;;;;;30.60;12.07;;;9.20;87.80;;;;;;5073422;28;20178;-76
2021/12/07 02:17:45;;;;;;;33.70;12.40;;;9.30;88.00;;;;;;5066710;28;20193;-76
2021/12/07 02:20:14;;;;;;;29.63;11.43;;;9.30;88.00;;;;;;5074789;28;20872;-77
2021/12/07 02:22:44;;;;;;;33.27;11.60;;;9.30;88.00;;;;;;5072042;28;20202;-77
2021/12/07 02:25:15;;;;;;;34.57;12.27;;;9.30;87.90;;;;;;5080543;28;20983;-77
2021/12/07 02:27:46;;;;;;;33.77;10.83;;;9.30;87.90;;;;;;5072608;28;20232;-77
2021/12/07 02:30:20;;;;;;;26.23;10.10;;;9.30;87.80;;;;;;5072722;28;20748;-76
2021/12/07 02:32:51;;;;;;;35.47;12.00;;;9.30;87.90;;;;;;5076313;28;20190;-77
2021/12/07 02:35:24;;;;;;;27.53;10.90;;;9.40;88.00;;;;;;5069054;28;20198;-77
2021/12/07 02:37:55;;;;;;;30.63;10.53;;;9.40;88.00;;;;;;5078488;28;20193;-77
2021/12/07 02:40:24;;;;;;;32.73;10.57;;;9.40;87.80;;;;;;5078975;28;20627;-76
2021/12/07 02:42:53;;;;;;;29.80;10.87;;;9.40;87.80;;;;;;5086595;28;20647;-77
2021/12/07 02:45:23;;;;;;;31.13;10.67;;;9.40;87.80;;;;;;5079199;28;20185;-76
2021/12/07 02:47:51;;;;;;;28.70;10.80;;;9.40;87.70;;;;;;5077763;28;20213;-77
2021/12/07 02:50:20;;;;;;;30.43;11.23;;;9.40;87.70;;;;;;5084103;28;20195;-78
2021/12/07 02:52:49;;;;;;;30.60;10.37;;;9.40;87.70;;;;;;5084531;28;20209;-77
2021/12/07 02:55:18;;;;;;;39.60;12.03;;;9.50;87.80;;;;;;5076344;28;20191;-76
2021/12/07 02:57:47;;;;;;;34.67;10.23;;;9.50;87.70;;;;;;5080827;28;20773;-77
2021/12/07 03:00:20;;;;;;;30.97;11.03;;;9.50;87.70;;;;;;5082053;28;20198;-76
2021/12/07 03:02:55;;;;;;;30.30;10.70;;;9.50;87.60;;;;;;5082033;28;20186;-77
2021/12/07 03:05:36;;;;;;;25.73;10.07;;;9.50;87.50;;;;;;5072870;28;20220;-76
2021/12/07 03:08:26;;;;;;;32.63;11.67;;;9.50;87.60;;;;;;5078046;28;20217;-77
2021/12/07 03:27:33;;;;;;;28.53;9.77;;;9.60;87.50;;;;;;5073347;28;20225;-76
2021/12/07 03:30:01;;;;;;;31.47;10.07;;;9.60;87.40;;;;;;5079443;28;20185;-76
2021/12/07 03:32:29;;;;;;;28.60;10.33;;;9.60;87.40;;;;;;5081046;28;20591;-77
2021/12/07 03:34:57;;;;;;;27.97;9.47;;;9.60;87.40;;;;;;5082485;28;20227;-76
2021/12/07 03:37:26;;;;;;;25.00;9.53;;;9.70;87.40;;;;;;5071778;28;20768;-76
2021/12/07 03:39:54;;;;;;;22.60;9.33;;;9.70;87.40;;;;;;5079513;28;20198;-76
2021/12/07 03:42:22;;;;;;;25.07;9.53;;;9.70;87.30;;;;;;5076366;28;20910;-76
2021/12/07 03:44:52;;;;;;;29.70;9.63;;;9.70;87.20;;;;;;5076602;28;20185;-77
2021/12/07 03:47:20;;;;;;;26.83;9.47;;;9.70;87.10;;;;;;5072394;28;20800;-75
2021/12/07 03:49:48;;;;;;;28.63;9.57;;;9.80;87.10;;;;;;5075607;28;20198;-77
2021/12/07 03:52:17;;;;;;;27.00;9.90;;;9.80;86.90;;;;;;5074717;28;20186;-77
2021/12/07 03:54:45;;;;;;;28.30;9.70;;;9.80;86.80;;;;;;5081995;28;20194;-76
2021/12/07 03:57:14;;;;;;;32.37;10.80;;;9.80;86.80;;;;;;5077789;28;20237;-77
2021/12/07 03:59:42;;;;;;;26.07;9.03;;;9.80;86.70;;;;;;5072935;28;20202;-77
2021/12/07 04:02:12;;;;;;;29.20;10.10;;;9.90;86.80;;;;;;5078794;28;20301;-76
2021/12/07 04:04:40;;;;;;;30.27;10.43;;;9.80;86.70;;;;;;5080778;28;20349;-76
2021/12/07 04:07:09;;;;;;;29.63;10.27;;;9.80;86.60;;;;;;5078017;28;20218;-78
2021/12/07 04:09:37;;;;;;;32.10;11.13;;;9.90;86.80;;;;;;5079921;28;20190;-77
2021/12/07 04:12:07;;;;;;;26.83;10.53;;;9.80;86.60;;;;;;5071523;28;20225;-77
2021/12/07 04:14:36;;;;;;;28.77;11.90;;;9.80;86.60;;;;;;5075298;28;20201;-76
2021/12/07 04:17:04;;;;;;;30.83;11.13;;;9.80;86.60;;;;;;5079229;28;20197;-76
2021/12/07 04:19:34;;;;;;;29.27;9.50;;;9.90;86.50;;;;;;5077768;28;20194;-77
2021/12/07 04:22:02;;;;;;;30.47;11.37;;;9.90;86.50;;;;;;5071004;28;20768;-76
2021/12/07 04:24:31;;;;;;;29.10;10.30;;;9.80;86.50;;;;;;5080993;28;20190;-76
2021/12/07 04:26:59;;;;;;;30.97;11.23;;;9.80;86.50;;;;;;5071083;28;20635;-76
2021/12/07 04:29:27;;;;;;;34.20;11.77;;;9.90;86.60;;;;;;5069584;28;20237;-76
2021/12/07 04:31:56;;;;;;;33.30;11.90;;;9.90;86.50;;;;;;5076131;28;20197;-76
2021/12/07 04:34:24;;;;;;;33.17;12.03;;;9.90;86.60;;;;;;5079057;28;20925;-77
2021/12/07 04:36:54;;;;;;;35.10;12.67;;;9.90;86.60;;;;;;5072641;28;20198;-76
2021/12/07 04:39:22;;;;;;;38.07;11.27;;;9.90;86.60;;;;;;5072195;28;20202;-76
2021/12/07 04:41:52;;;;;;;34.97;11.40;;;9.90;86.60;;;;;;5075777;28;20201;-76
2021/12/07 04:44:22;;;;;;;31.70;11.90;;;9.90;86.50;;;;;;5076664;28;20221;-77
2021/12/07 04:47:03;;;;;;;35.00;11.70;;;9.90;86.60;;;;;;5077267;28;20196;-76
2021/12/07 04:57:49;;;;;;;34.17;12.60;;;10.00;86.60;;;;;;5034282;28;20206;-77
2021/12/07 05:00:21;;;;;;;35.33;13.03;;;10.00;86.40;;;;;;5077341;28;20647;-76
2021/12/07 05:02:55;;;;;;;42.17;14.27;;;9.90;86.20;;;;;;5074809;28;20182;-76
2021/12/07 05:05:30;;;;;;;37.17;13.07;;;10.00;86.40;;;;;;5078762;28;20189;-76
2021/12/07 05:08:08;;;;;;;34.57;14.07;;;10.00;86.50;;;;;;5075357;28;20205;-76
2021/12/07 05:10:58;;;;;;;45.30;14.23;;;10.00;86.60;;;;;;5073868;28;20193;-77
2021/12/07 05:13:31;;;;;;;40.07;14.83;;;10.00;86.60;;;;;;5074294;28;20189;-75
2021/12/07 05:16:25;;;;;;;38.17;12.70;;;9.90;86.50;;;;;;5077913;28;20280;-76
2021/12/07 05:19:03;;;;;;;35.57;14.40;;;9.90;86.50;;;;;;5078729;28;20649;-76
2021/12/07 05:24:21;;;;;;;30.97;13.30;;;9.90;86.80;;;;;;5073406;28;20202;-76
2021/12/07 05:37:56;;;;;;;29.43;11.60;;;10.00;86.80;;;;;;5076407;28;20284;-77
2021/12/07 05:40:28;;;;;;;32.33;12.60;;;10.00;86.70;;;;;;5080952;28;20273;-77
2021/12/07 05:42:57;;;;;;;30.40;12.00;;;10.00;86.70;;;;;;5074146;28;20195;-77
2021/12/07 05:45:30;;;;;;;27.27;11.57;;;10.00;86.70;;;;;;5070273;28;20194;-77
2021/12/07 05:47:58;;;;;;;23.63;11.60;;;10.00;86.70;;;;;;5074928;28;20709;-77
2021/12/07 05:50:32;;;;;;;23.37;11.40;;;10.00;86.70;;;;;;5079282;28;20190;-76
2021/12/07 05:53:02;;;;;;;26.00;11.77;;;10.00;86.70;;;;;;5074625;28;20195;-77
2021/12/07 05:55:32;;;;;;;30.47;11.93;;;10.00;86.70;;;;;;5080984;28;20186;-77
2021/12/07 05:58:00;;;;;;;27.67;11.70;;;10.00;86.80;;;;;;5082449;28;20675;-76
2021/12/07 06:00:31;;;;;;;26.57;10.83;;;10.00;86.70;;;;;;5077878;28;20182;-76
2021/12/07 06:03:05;;;;;;;27.37;11.23;;;10.00;86.80;;;;;;5074139;28;20197;-77
2021/12/07 06:05:35;;;;;;;25.27;11.63;;;10.00;86.80;;;;;;5072106;28;20700;-77
2021/12/07 06:08:04;;;;;;;29.87;11.40;;;10.00;86.80;;;;;;5077961;28;20278;-76
2021/12/07 06:10:35;;;;;;;28.80;12.00;;;10.00;86.70;;;;;;5072298;28;20198;-76
2021/12/07 06:13:04;;;;;;;34.60;13.07;;;10.00;86.70;;;;;;5083381;28;20178;-77
2021/12/07 06:15:34;;;;;;;28.90;12.37;;;10.10;86.70;;;;;;5083669;28;20960;-77
2021/12/07 06:18:03;;;;;;;33.90;12.57;;;10.10;86.70;;;;;;5082220;28;20866;-77
2021/12/07 06:20:31;;;;;;;35.50;13.17;;;10.10;86.80;;;;;;5076333;28;20182;-76
2021/12/07 06:23:12;;;;;;;32.43;12.10;;;10.10;86.80;;;;;;5074986;28;20185;-77
2021/12/07 06:25:42;;;;;;;27.57;12.37;;;10.10;86.80;;;;;;5080557;28;20201;-78
2021/12/07 06:28:10;;;;;;;30.33;12.73;;;10.10;86.80;;;;;;5083716;28;20225;-77
2021/12/07 06:30:42;;;;;;;28.57;11.70;;;10.10;86.90;;;;;;5082565;28;20198;-78
2021/12/07 06:33:11;;;;;;;31.07;13.00;;;10.10;86.90;;;;;;5079144;28;20223;-77
2021/12/07 06:35:39;;;;;;;23.67;10.90;;;10.10;86.80;;;;;;5075592;28;20193;-77
2021/12/07 06:38:08;;;;;;;31.40;12.73;;;10.20;86.80;;;;;;5081171;28;20190;-77
2021/12/07 06:40:37;;;;;;;31.77;13.80;;;10.20;86.90;;;;;;5080522;28;20202;-76
2021/12/07 06:43:06;;;;;;;32.03;12.53;;;10.20;86.90;;;;;;5080564;28;20182;-77
2021/12/07 06:45:35;;;;;;;31.00;13.17;;;10.20;87.00;;;;;;5084187;28;20189;-76
2021/12/07 06:48:04;;;;;;;29.17;11.13;;;10.30;87.00;;;;;;5070582;28;20276;-77
2021/12/07 06:50:32;;;;;;;29.27;11.27;;;10.30;86.90;;;;;;5084973;28;20193;-75
2021/12/07 06:53:00;;;;;;;27.53;13.00;;;10.30;86.90;;;;;;5079210;28;20196;-75
2021/12/07 06:55:29;;;;;;;33.83;12.67;;;10.30;86.90;;;;;;5077198;28;20190;-76
2021/12/07 06:57:57;;;;;;;32.13;12.17;;;10.40;86.90;;;;;;5080312;28;20214;-76
2021/12/07 07:00:27;;;;;;;34.47;14.40;;;10.30;86.70;;;;;;5078846;28;20188;-76
2021/12/07 07:02:55;;;;;;;33.13;12.23;;;10.40;86.80;;;;;;5080260;28;20186;-76
2021/12/07 07:05:24;;;;;;;26.37;12.03;;;10.40;86.80;;;;;;5084655;28;20182;-76
2021/12/07 07:07:53;;;;;;;34.07;13.60;;;10.40;86.80;;;;;;5081837;28;20193;-75
2021/12/07 07:10:21;;;;;;;29.37;13.00;;;10.40;86.80;;;;;;5085427;28;20189;-76
2021/12/07 07:12:50;;;;;;;29.30;12.53;;;10.40;86.70;;;;;;5078108;28;20609;-76
2021/12/07 07:15:19;;;;;;;30.50;12.77;;;10.50;86.90;;;;;;5081430;28;20277;-76
2021/12/07 07:17:49;;;;;;;32.20;11.80;;;10.50;86.80;;;;;;5080120;28;20190;-76
2021/12/07 07:20:18;;;;;;;28.17;11.73;;;10.50;86.90;;;;;;5075316;28;20687;-76
2021/12/07 07:22:46;;;;;;;29.73;13.00;;;10.50;86.70;;;;;;5073209;28;20841;-76
2021/12/07 07:25:16;;;;;;;28.43;11.17;;;10.50;86.70;;;;;;5076679;28;20202;-76
2021/12/07 07:27:44;;;;;;;28.03;11.57;;;10.50;86.70;;;;;;5077420;28;20194;-76
2021/12/07 07:30:16;;;;;;;28.97;12.73;;;10.50;86.70;;;;;;5077451;28;20793;-76
2021/12/07 07:32:44;;;;;;;29.07;12.80;;;10.60;86.90;;;;;;5078525;28;20275;-76
2021/12/07 07:35:15;;;;;;;33.10;12.73;;;10.60;86.80;;;;;;5086078;28;20197;-75
2021/12/07 07:37:44;;;;;;;28.83;12.83;;;10.60;86.70;;;;;;5084373;28;20231;-75
2021/12/07 07:40:16;;;;;;;29.30;12.03;;;10.60;86.80;;;;;;5069387;28;20190;-76
2021/12/07 07:42:45;;;;;;;30.13;13.93;;;10.60;86.70;;;;;;5083414;28;20433;-76
2021/12/07 07:45:14;;;;;;;35.93;13.60;;;10.60;86.90;;;;;;5079553;28;20227;-76
2021/12/07 07:47:42;;;;;;;28.17;12.10;;;10.60;86.90;;;;;;5074679;28;20821;-77
2021/12/07 07:50:14;;;;;;;31.13;12.93;;;10.60;86.90;;;;;;5076507;28;20217;-76
2021/12/07 07:52:43;;;;;;;34.63;12.97;;;10.70;86.90;;;;;;5077677;28;20196;-76
2021/12/07 07:55:12;;;;;;;27.03;12.17;;;10.70;86.90;;;;;;5084840;28;20194;-76
2021/12/07 07:57:41;;;;;;;29.60;12.07;;;10.70;86.90;;;;;;5081525;28;20186;-77
2021/12/07 08:00:12;;;;;;;29.67;12.27;;;10.70;86.90;;;;;;5077465;28;20464;-77
2021/12/07 08:02:41;;;;;;;27.80;12.13;;;10.70;87.00;;;;;;5077669;28;20531;-77
2021/12/07 08:05:10;;;;;;;34.90;14.07;;;10.70;87.00;;;;;;5073323;28;20195;-77
2021/12/07 08:07:40;;;;;;;29.07;11.87;;;10.70;87.00;;;;;;5077318;28;20195;-77
2021/12/07 08:10:10;;;;;;;23.53;10.87;;;10.80;87.10;;;;;;5079033;28;20331;-76
2021/12/07 08:12:38;;;;;;;35.23;12.63;;;10.80;87.10;;;;;;5073891;28;20202;-77
2021/12/07 08:15:08;;;;;;;26.00;11.07;;;10.80;87.20;;;;;;5074113;28;20190;-76
2021/12/07 08:17:36;;;;;;;25.73;10.73;;;10.80;87.20;;;;;;5083162;28;20691;-76
2021/12/07 08:20:06;;;;;;;27.10;12.00;;;10.80;87.20;;;;;;5083263;28;20186;-77
2021/12/07 08:22:34;;;;;;;29.53;11.67;;;10.90;87.30;;;;;;5076714;28;20181;-77
2021/12/07 08:25:05;;;;;;;30.20;12.70;;;10.80;87.20;;;;;;5079435;28;20243;-77
2021/12/07 08:27:33;;;;;;;23.40;11.90;;;10.90;87.30;;;;;;5080032;28;20194;-76
2021/12/07 08:30:01;;;;;;;32.47;11.90;;;10.90;87.20;;;;;;5077301;28;20790;-77
2021/12/07 08:32:30;;;;;;;25.80;11.70;;;10.90;87.20;;;;;;5083139;28;20182;-76
2021/12/07 08:34:58;;;;;;;27.10;11.57;;;10.90;87.40;;;;;;5073986;28;20621;-77
2021/12/07 08:37:26;;;;;;;31.00;13.60;;;11.00;87.20;;;;;;5076287;28;20194;-77
2021/12/07 08:39:57;;;;;;;28.47;13.37;;;10.90;87.00;;;;;;5075353;28;20191;-77
2021/12/07 08:42:27;;;;;;;31.47;13.77;;;10.90;87.00;;;;;;5079622;28;20182;-77
2021/12/07 08:44:55;;;;;;;29.50;13.30;;;10.90;86.90;;;;;;5073765;28;20236;-76
2021/12/07 08:47:23;;;;;;;30.43;14.50;;;10.90;86.90;;;;;;5071459;28;20179;-76
2021/12/07 08:50:13;;;;;;;31.07;13.03;;;10.90;86.80;;;;;;5082635;28;20202;-76
2021/12/07 08:52:41;;;;;;;34.70;15.80;;;10.90;86.90;;;;;;5085927;28;20185;-76
2021/12/07 09:00:54;;;;;;;28.27;12.57;;;10.80;86.80;;;;;;5020803;28;20195;-77
2021/12/07 09:03:23;;;;;;;26.63;12.13;;;10.80;86.70;;;;;;5060013;28;20273;-76
2021/12/07 09:05:52;;;;;;;22.67;10.77;;;10.80;86.60;;;;;;5070236;28;20896;-76
2021/12/07 09:08:21;;;;;;;29.33;10.93;;;10.80;86.60;;;;;;5066494;28;20205;-76
2021/12/07 09:10:50;;;;;;;25.67;11.47;;;10.70;86.60;;;;;;5072356;28;20224;-77
2021/12/07 09:13:23;;;;;;;31.77;10.87;;;10.70;86.70;;;;;;5085464;28;20182;-76
2021/12/07 09:15:52;;;;;;;24.33;11.47;;;10.70;86.70;;;;;;5085179;28;20186;-77
2021/12/07 09:36:44;;;;;;;20.17;10.50;;;10.50;86.40;;;;;;5099597;27;20547;-76
2021/12/07 09:39:14;;;;;;;23.63;11.20;;;10.40;89.00;;;;;;5085399;28;20186;-76
2021/12/07 09:41:43;;;;;;;21.53;10.00;;;10.50;88.70;;;;;;5083940;28;20197;-77
2021/12/07 09:44:12;;;;;;;22.13;10.13;;;10.50;89.20;;;;;;5083655;28;20193;-77
2021/12/07 09:46:41;;;;;;;23.63;10.33;;;10.50;88.20;;;;;;5100618;28;20197;-77
2021/12/07 09:49:12;;;;;;;22.43;10.73;;;10.60;88.20;;;;;;5088674;28;20194;-77
2021/12/07 09:51:40;;;;;;;21.03;10.17;;;10.70;88.00;;;;;;5096958;28;20189;-80
2021/12/07 09:54:10;;;;;;;18.40;8.93;;;10.70;87.80;;;;;;5087566;28;20194;-76
2021/12/07 09:56:40;;;;;;;18.80;9.80;;;10.70;87.60;;;;;;5097780;28;20194;-76
2021/12/07 09:59:10;;;;;;;19.33;9.20;;;10.70;87.60;;;;;;5080259;28;20190;-78
2021/12/07 10:01:41;;;;;;;16.70;8.23;;;10.70;87.70;;;;;;5079013;28;20757;-79
2021/12/07 10:04:11;;;;;;;16.80;7.27;;;10.80;87.70;;;;;;5087837;28;20189;-78
2021/12/07 10:06:40;;;;;;;16.30;7.07;;;10.80;87.70;;;;;;5082661;28;20206;-78
2021/12/07 10:09:09;;;;;;;14.17;6.67;;;10.80;87.70;;;;;;5093080;28;20189;-77
2021/12/07 10:11:38;;;;;;;13.03;7.00;;;10.80;87.60;;;;;;5091736;28;20201;-77
2021/12/07 10:14:06;;;;;;;10.70;6.03;;;10.70;87.60;;;;;;5088867;28;20185;-76
2021/12/07 10:16:35;;;;;;;13.33;6.53;;;10.70;87.60;;;;;;5077243;28;20225;-77
2021/12/07 10:19:03;;;;;;;12.67;6.27;;;10.70;87.60;;;;;;5091815;28;20683;-78
2021/12/07 10:21:39;;;;;;;12.73;6.83;;;10.70;87.80;;;;;;5085631;28;20186;-77
2021/12/07 10:24:10;;;;;;;13.20;6.00;;;10.70;88.00;;;;;;5086130;28;20796;-79
2021/12/07 10:26:42;;;;;;;12.47;6.20;;;10.70;88.10;;;;;;5075911;28;20807;-76
2021/12/07 10:29:13;;;;;;;10.90;5.83;;;10.70;87.90;;;;;;5095783;28;20192;-77
2021/12/07 10:31:47;;;;;;;13.87;6.93;;;10.70;87.90;;;;;;5087633;28;20190;-75
2021/12/07 10:34:19;;;;;;;13.27;6.70;;;10.70;88.00;;;;;;5081178;28;20185;-75
2021/12/07 10:36:49;;;;;;;12.13;6.60;;;10.70;88.00;;;;;;5085151;28;20642;-75
2021/12/07 10:39:19;;;;;;;12.67;6.07;;;10.70;88.00;;;;;;5073383;28;20189;-76
2021/12/07 10:41:55;;;;;;;10.10;6.07;;;10.70;88.00;;;;;;5068698;28;20185;-76
2021/12/07 10:44:26;;;;;;;11.27;5.97;;;10.70;88.20;;;;;;5061594;28;20182;-75
2021/12/07 10:46:57;;;;;;;11.60;6.00;;;10.60;88.10;;;;;;5069996;28;20995;-76
2021/12/07 10:49:41;;;;;;;9.50;5.67;;;10.60;88.30;;;;;;5076546;28;20174;-76
2021/12/07 10:52:19;;;;;;;13.00;6.70;;;10.60;88.30;;;;;;5064743;28;20199;-76
2021/12/07 10:55:01;;;;;;;12.80;5.90;;;10.60;88.80;;;;;;5063201;28;20184;-76
2021/12/07 10:57:34;;;;;;;12.00;5.70;;;10.60;88.60;;;;;;5062027;28;20737;-77
2021/12/07 11:00:21;;;;;;;8.27;4.73;;;10.60;88.70;;;;;;5062602;28;20185;-78
2021/12/07 11:02:53;;;;;;;8.37;4.67;;;10.60;88.80;;;;;;5071850;28;20182;-79
2021/12/07 11:05:24;;;;;;;10.17;4.93;;;10.60;88.90;;;;;;5063593;28;20178;-78
2021/12/07 11:07:54;;;;;;;10.63;5.47;;;10.60;89.40;;;;;;5068384;28;20182;-80
2021/12/07 11:10:29;;;;;;;11.70;5.27;;;10.60;89.10;;;;;;5074361;28;20218;-80
2021/12/07 11:13:07;;;;;;;11.20;5.73;;;10.60;89.00;;;;;;5068961;28;20194;-79
2021/12/07 11:15:41;;;;;;;11.70;5.57;;;10.60;89.20;;;;;;5063543;28;20207;-81
2021/12/07 11:18:12;;;;;;;12.80;5.60;;;10.50;89.10;;;;;;5064555;28;20179;-80
2021/12/07 11:20:40;;;;;;;12.63;5.67;;;10.50;89.10;;;;;;5074047;28;20175;-81
2021/12/07 11:23:14;;;;;;;13.27;6.13;;;10.50;89.10;;;;;;5072610;28;20190;-80
2021/12/07 11:31:28;;;;;;;11.07;5.30;;;10.60;89.40;;;;;;5062276;28;20281;-79
2021/12/07 11:34:06;;;;;;;15.33;6.70;;;10.60;89.30;;;;;;5062036;28;20645;-80
2021/12/07 11:36:38;;;;;;;12.57;4.90;;;10.70;89.40;;;;;;5068762;28;20225;-80
2021/12/07 11:39:25;;;;;;;12.97;6.37;;;10.70;89.50;;;;;;5079010;28;20182;-80
2021/12/07 11:41:57;;;;;;;10.97;5.03;;;10.70;89.40;;;;;;5072146;28;20195;-80
2021/12/07 11:44:28;;;;;;;12.33;5.73;;;10.70;89.10;;;;;;5081826;28;20240;-79
2021/12/07 11:46:57;;;;;;;10.97;5.83;;;10.70;88.80;;;;;;5069802;28;20301;-81
2021/12/07 11:49:27;;;;;;;10.53;5.73;;;10.70;88.80;;;;;;5067021;28;20222;-80
2021/12/07 11:51:58;;;;;;;11.30;5.60;;;10.70;89.00;;;;;;5066207;28;20644;-80
2021/12/07 11:54:29;;;;;;;11.43;5.47;;;10.70;88.80;;;;;;5072394;28;20193;-79
2021/12/07 11:56:59;;;;;;;11.03;5.83;;;10.70;88.70;;;;;;5077071;28;20202;-79
2021/12/07 11:59:29;;;;;;;13.50;7.00;;;10.60;88.60;;;;;;5068790;28;20315;-80
2021/12/07 12:01:57;;;;;;;13.40;7.57;;;10.70;88.60;;;;;;5064242;28;20232;-80
2021/12/07 12:04:26;;;;;;;14.13;7.83;;;10.70;88.60;;;;;;5064827;28;20209;-79
2021/12/07 12:06:59;;;;;;;21.23;7.90;;;10.70;88.50;;;;;;5064382;28;20761;-79
2021/12/07 12:09:29;;;;;;;19.23;8.43;;;10.80;88.50;;;;;;5066416;28;20182;-79
2021/12/07 12:12:07;;;;;;;20.10;7.63;;;10.80;88.50;;;;;;5063246;28;20194;-81
2021/12/07 12:14:47;;;;;;;10.57;6.47;;;10.80;88.30;;;;;;5066147;28;20514;-80
2021/12/07 12:17:24;;;;;;;12.13;6.27;;;10.80;88.20;;;;;;5067113;28;20209;-79
2021/12/07 12:20:10;;;;;;;15.02;7.40;;;10.80;88.00;;;;;;5063155;28;20423;-79
2021/12/07 12:22:42;;;;;;;13.67;5.83;;;10.80;88.30;;;;;;5065879;28;20197;-79
2021/12/07 12:25:13;;;;;;;9.83;5.70;;;10.80;88.30;;;;;;5063878;28;20174;-80
2021/12/07 12:27:42;;;;;;;13.10;6.37;;;10.80;88.30;;;;;;5061194;28;20182;-79
2021/12/07 12:30:21;;;;;;;15.77;6.53;;;10.80;88.20;;;;;;5059351;28;20191;-80
2021/12/07 12:32:55;;;;;;;11.70;6.80;;;10.80;88.20;;;;;;5057275;28;20262;-80
2021/12/07 12:35:34;;;;;;;18.17;7.70;;;10.80;88.00;;;;;;5058878;28;20224;-80
2021/12/07 12:38:14;;;;;;;14.03;6.80;;;10.80;88.20;;;;;;5063499;28;20190;-80
2021/12/07 12:40:43;;;;;;;13.27;6.93;;;10.90;88.30;;;;;;5058153;28;20198;-81
2021/12/07 12:43:13;;;;;;;11.43;6.37;;;10.90;88.20;;;;;;5055504;28;20190;-79
2021/12/07 12:45:46;;;;;;;14.20;6.20;;;10.90;88.30;;;;;;5062677;28;20216;-79
2021/12/07 12:48:21;;;;;;;12.40;5.53;;;10.90;88.00;;;;;;5057862;28;20195;-79
2021/12/07 12:50:53;;;;;;;10.40;5.63;;;10.90;87.90;;;;;;5061133;28;20185;-79
2021/12/07 12:53:23;;;;;;;14.00;7.00;;;10.90;87.90;;;;;;5052026;28;20260;-79
2021/12/07 12:55:53;;;;;;;10.23;6.67;;;10.90;87.90;;;;;;5060486;28;20273;-78
2021/12/07 12:58:37;;;;;;;9.93;6.30;;;10.80;88.00;;;;;;5058931;28;20601;-78
2021/12/07 13:01:25;;;;;;;13.67;7.23;;;10.80;87.90;;;;;;5048691;28;20313;-78
2021/12/07 13:04:00;;;;;;;14.10;7.40;;;10.80;88.00;;;;;;5061255;28;20195;-79
2021/12/07 13:07:00;;;;;;;13.23;6.53;;;10.80;87.90;;;;;;5061555;28;20178;-79
2021/12/07 13:09:46;;;;;;;12.47;7.30;;;10.80;87.90;;;;;;5061519;28;20257;-78
2021/12/07 13:12:18;;;;;;;11.37;5.83;;;10.90;88.00;;;;;;5064147;28;20350;-80
2021/12/07 13:15:00;;;;;;;12.13;5.83;;;10.90;88.20;;;;;;5062970;28;20194;-79
2021/12/07 13:17:34;;;;;;;11.60;5.83;;;10.90;88.10;;;;;;5065789;28;20212;-79
2021/12/07 13:20:29;;;;;;;12.77;5.43;;;10.80;87.90;;;;;;5063069;28;20183;-79
2021/12/07 13:23:09;;;;;;;11.30;5.90;;;10.80;87.80;;;;;;5066306;28;20195;-78
2021/12/07 13:25:42;;;;;;;10.70;5.67;;;10.80;87.90;;;;;;5062771;28;20194;-78
2021/12/07 13:28:18;;;;;;;10.07;6.03;;;10.80;87.80;;;;;;5067123;28;20183;-79
2021/12/07 13:30:56;;;;;;;12.33;5.83;;;10.70;87.70;;;;;;5062684;28;20174;-79
2021/12/07 13:33:38;;;;;;;13.37;6.33;;;10.70;87.90;;;;;;5062727;28;20190;-78
2021/12/07 13:36:46;;;;;;;17.03;6.07;;;10.70;87.90;;;;;;5063281;28;20225;-78
2021/12/07 13:39:46;;;;;;;13.87;6.33;;;10.80;88.10;;;;;;5071586;28;20354;-79
2021/12/07 13:42:23;;;;;;;12.97;6.40;;;10.80;88.00;;;;;;5071578;28;20184;-79
2021/12/07 13:44:56;;;;;;;17.40;7.53;;;10.80;87.90;;;;;;5065313;28;20185;-78
2021/12/07 13:47:26;;;;;;;14.07;6.80;;;10.80;87.90;;;;;;5064114;28;20194;-79
2021/12/07 13:49:59;;;;;;;13.53;6.80;;;10.80;87.90;;;;;;5064972;28;20191;-78
2021/12/07 13:52:30;;;;;;;10.93;6.50;;;10.80;88.00;;;;;;5063048;28;20224;-78
2021/12/07 13:55:05;;;;;;;12.77;6.63;;;10.80;88.00;;;;;;5062660;28;20179;-79
2021/12/07 13:57:37;;;;;;;12.20;6.90;;;10.80;87.90;;;;;;5063006;28;20216;-79
2021/12/07 14:00:10;;;;;;;14.00;6.67;;;10.90;88.00;;;;;;5069782;28;20187;-78
2021/12/07 14:02:41;;;;;;;16.87;8.20;;;10.80;87.70;;;;;;5063552;28;20652;-78
2021/12/07 14:05:14;;;;;;;14.13;6.67;;;10.90;87.80;;;;;;5065997;28;20268;-78
2021/12/07 14:07:47;;;;;;;14.00;7.87;;;10.90;87.80;;;;;;5018469;28;20190;-79
2021/12/07 14:10:18;;;;;;;12.73;6.43;;;10.90;87.80;;;;;;5061573;28;20202;-79
2021/12/07 14:12:49;;;;;;;11.50;7.17;;;10.90;87.90;;;;;;5065375;28;20198;-79
2021/12/07 14:15:20;;;;;;;10.93;6.20;;;10.90;87.80;;;;;;5066802;28;20561;-79
2021/12/07 14:17:52;;;;;;;11.37;6.57;;;10.90;87.80;;;;;;5067174;28;20211;-79
2021/12/07 14:20:30;;;;;;;12.30;6.40;;;10.90;87.80;;;;;;5066543;28;20869;-79
2021/12/07 14:22:59;;;;;;;15.63;6.87;;;10.90;87.80;;;;;;5070857;28;20182;-78
2021/12/07 14:25:28;;;;;;;15.73;7.10;;;10.90;87.80;;;;;;5068346;28;20202;-79
2021/12/07 14:27:58;;;;;;;11.17;6.53;;;10.90;87.70;;;;;;5070026;28;20807;-78
2021/12/07 14:30:29;;;;;;;13.40;6.83;;;10.90;87.70;;;;;;5064846;28;20240;-80
2021/12/07 14:32:58;;;;;;;13.60;7.03;;;10.90;87.80;;;;;;5067136;28;20694;-80
2021/12/07 14:35:28;;;;;;;10.60;6.57;;;10.90;87.80;;;;;;5065898;28;20226;-79
2021/12/07 14:37:58;;;;;;;13.27;7.50;;;10.90;87.80;;;;;;5070441;28;20228;-79